METAR Data
IDs: Format: Raw Decoded Include TAF

Data at: 1756 UTC 16 Oct 2021

KLZZ 161735Z AUTO 03008G16KT 10SM CLR 20/00 A3038 RMK AO2 T01970003
KLZZ 161715Z AUTO 04010KT 10SM CLR 19/00 A3038 RMK AO2 T01940004
KLZZ 161655Z AUTO 05011G14KT 10SM CLR 19/M01 A3038 RMK AO2 T01911006
KLZZ 161635Z AUTO 03010G18KT 10SM CLR 19/00 A3039 RMK AO2 T01880004
KLZZ 161615Z AUTO 02010G15KT 10SM CLR 19/01 A3039 RMK AO2 T01860008
KLZZ 161555Z AUTO 06012G15KT 020V080 10SM CLR 18/03 A3039 RMK AO2 T01820027
KLZZ 161535Z AUTO 04010G15KT 10SM CLR 17/05 A3039 RMK AO2 T01720045
KLZZ 161515Z AUTO 06008KT 10SM CLR 17/04 A3039 RMK AO2 T01650042
KLZZ 161455Z AUTO 03007KT 10SM CLR 16/05 A3038 RMK AO2 T01570048
KLZZ 161435Z AUTO 03006KT 10SM CLR 15/05 A3039 RMK AO2 T01500048
KLZZ 161415Z AUTO 03006KT 10SM CLR 14/05 A3038 RMK AO2 T01410048
KLZZ 161355Z AUTO 36005KT 10SM CLR 13/06 A3037 RMK AO2 T01290055
KLZZ 161335Z AUTO 35003KT 10SM CLR 12/05 A3036 RMK AO2 T01160050
KLZZ 161315Z AUTO 33003KT 10SM CLR 11/05 A3036 RMK AO2 T01050048
KLZZ 161255Z AUTO 35003KT 10SM CLR 09/05 A3035 RMK AO2 T00940046
KLZZ 161235Z AUTO 34004KT 10SM CLR 09/05 A3034 RMK AO2 T00900045
KLZZ 161215Z AUTO 35003KT 10SM CLR 09/04 A3034 RMK AO2 T00930043
KLZZ 161155Z AUTO 35005KT 10SM CLR 09/05 A3033 RMK AO2 T00940045 10125 20094
KLZZ 161135Z AUTO 34004KT 10SM CLR 10/05 A3032 RMK AO2 T00950045
KLZZ 161115Z AUTO 35005KT 10SM CLR 10/05 A3031 RMK AO2 T00950045
KLZZ 161055Z AUTO 35004KT 10SM CLR 10/05 A3031 RMK AO2 T01000045
KLZZ 161035Z AUTO 36004KT 10SM CLR 10/05 A3030 RMK AO2 T01010046
KLZZ 161015Z AUTO 35005KT 10SM CLR 10/05 A3029 RMK AO2 T01010046
KLZZ 160955Z AUTO 01004KT 10SM CLR 10/05 A3029 RMK AO2 T00970050
KLZZ 160935Z AUTO 01003KT 10SM CLR 10/05 A3029 RMK AO2 T01000050
KLZZ 160915Z AUTO 36003KT 10SM CLR 11/05 A3029 RMK AO2 T01050049
KLZZ 160855Z AUTO 01004KT 10SM CLR 11/05 A3028 RMK AO2 T01080050
KLZZ 160835Z AUTO 36004KT 10SM CLR 11/05 A3028 RMK AO2 T01100050
KLZZ 160815Z AUTO 36005KT 10SM CLR 12/05 A3028 RMK AO2 T01160049
KLZZ 160755Z AUTO 35006KT 10SM CLR 12/05 A3028 RMK AO2 T01180052
KLZZ 160735Z AUTO 35006KT 10SM CLR 12/06 A3027 RMK AO2 T01200055
KLZZ 160715Z AUTO 35005KT 10SM CLR 12/06 A3028 RMK AO2 T01170060
KLZZ 160655Z AUTO 34004KT 10SM CLR 12/06 A3028 RMK AO2 T01170062
KLZZ 160635Z AUTO 34004KT 10SM CLR 12/06 A3027 RMK AO2 T01200064
KLZZ 160615Z AUTO 35003KT 10SM CLR 12/07 A3027 RMK AO2 T01230066
KLZZ 160555Z AUTO 36004KT 10SM CLR 13/07 A3026 RMK AO2 T01250070 10201 20125 402680125
KLZZ 160535Z AUTO 35004KT 10SM CLR 13/07 A3027 RMK AO2 T01260072
KLZZ 160515Z AUTO 00000KT 10SM CLR 13/07 A3027 RMK AO2 T01330072
KLZZ 160455Z AUTO 00000KT 10SM CLR 14/07 A3027 RMK AO2 T01400070
KLZZ 160435Z AUTO 02004KT 10SM CLR 15/07 A3026 RMK AO2 T01450072
KLZZ 160415Z AUTO 02006KT 10SM CLR 15/07 A3025 RMK AO2 T01520072
KLZZ 160355Z AUTO 01007KT 10SM CLR 16/08 A3024 RMK AO2 T01550075
KLZZ 160335Z AUTO 01008KT 10SM CLR 16/08 A3023 RMK AO2 T01580077
KLZZ 160315Z AUTO 01007KT 10SM CLR 16/08 A3022 RMK AO2 T01590080
KLZZ 160255Z AUTO 36007KT 10SM CLR 16/08 A3020 RMK AO2 T01620082
KLZZ 160235Z AUTO 01007KT 10SM CLR 17/09 A3019 RMK AO2 T01660085
KLZZ 160215Z AUTO 36009KT 10SM CLR 17/09 A3018 RMK AO2 T01700086
KLZZ 160155Z AUTO 36006KT 10SM CLR 17/09 A3017 RMK AO2 T01700089
KLZZ 160135Z AUTO 36005KT 10SM CLR 18/09 A3017 RMK AO2 T01760089
KLZZ 160115Z AUTO 36006KT 10SM CLR 18/09 A3016 RMK AO2 T01810088
KLZZ 160055Z AUTO 36006KT 10SM CLR 19/09 A3015 RMK AO2 T01850091
KLZZ 160035Z AUTO 35007KT 10SM CLR 19/10 A3014 RMK AO2 T01900095
KLZZ 160015Z AUTO 36005KT 10SM CLR 19/10 A3012 RMK AO2 T01930097
KLZZ 152355Z AUTO 36007G15KT 10SM CLR 20/10 A3011 RMK AO2 T02020099 10238 20201
KLZZ 152335Z AUTO 36008G15KT 10SM CLR 21/10 A3010 RMK AO2 T02100103
KLZZ 152315Z AUTO 01008G14KT 10SM CLR 22/11 A3009 RMK AO2 T02180105
KLZZ 152255Z AUTO 36009G14KT 10SM CLR 23/11 A3008 RMK AO2 T02250106
KLZZ 152235Z AUTO 36008G19KT 10SM CLR 23/11 A3007 RMK AO2 T02280107
KLZZ 152215Z AUTO 02011G16KT 10SM CLR 24/12 A3006 RMK AO2 T02350117
KLZZ 152155Z AUTO 01011G16KT 10SM CLR 24/12 A3005 RMK AO2 T02360121
KLZZ 152135Z AUTO 01014G20KT 10SM CLR 24/12 A3004 RMK AO2 T02380123
KLZZ 152115Z AUTO 34012G19KT 10SM CLR 24/12 A3005 RMK AO2 T02360118
KLZZ 152055Z AUTO 36011G21KT 10SM CLR 24/12 A3004 RMK AO2 T02360121
KLZZ 152035Z AUTO 36012G16KT 10SM CLR 24/13 A3005 RMK AO2 T02370130
KLZZ 152015Z AUTO 36012G18KT 10SM CLR 23/13 A3004 RMK AO2 T02330132
KLZZ 151955Z AUTO 35011G20KT 10SM CLR 23/13 A3004 RMK AO2 T02290133
KLZZ 151935Z AUTO 36012G19KT 10SM CLR 23/13 A3004 RMK AO2 T02250133
KLZZ 151915Z AUTO 36013G21KT 10SM CLR 22/14 A3004 RMK AO2 T02230141
KLZZ 151855Z AUTO 34011G17KT 10SM CLR 22/15 A3005 RMK AO2 T02240148
KLZZ 151835Z AUTO 34010G15KT 10SM CLR 23/15 A3005 RMK AO2 T02280154
KLZZ 151815Z AUTO 02013G18KT 10SM CLR 23/16 A3004 RMK AO2 T02250156
KLZZ 151755Z AUTO 35013G18KT 320V020 10SM CLR 23/15 A3004 RMK AO2 T02330152 10268 20213
KLZZ 151735Z AUTO 34011G17KT 10SM CLR 24/15 A3004 RMK AO2 T02390145
KLZZ 151715Z AUTO 36012G20KT 10SM CLR 24/16 A3002 RMK AO2 T02430157
KLZZ 151655Z AUTO 34007G15KT 300V020 10SM CLR 27/15 A3001 RMK AO2 T02650148
KLZZ 151635Z AUTO 32009G15KT 10SM CLR 27/16 A3000 RMK AO2 T02660160
KLZZ 151615Z AUTO 30011G15KT 10SM CLR 26/20 A3000 RMK AO2 T02620198
KLZZ 151555Z AUTO 30007G15KT 10SM SCT022 SCT026 26/20 A2999 RMK AO2 T02630196
KLZZ 151535Z AUTO 29006KT 10SM BKN020 26/21 A2999 RMK AO2 T02560209
KLZZ 151515Z AUTO 28008KT 240V300 10SM SCT020 25/21 A2998 RMK AO2 T02510212
KLZZ 151455Z AUTO 28009G14KT 10SM CLR 25/21 A2997 RMK AO2 T02510213
KLZZ 151435Z AUTO 27010G15KT 10SM CLR 25/21 A2996 RMK AO2 T02450212
KLZZ 151415Z AUTO 26007KT 10SM CLR 24/21 A2996 RMK AO2 T02400213
KLZZ 151355Z AUTO 23004KT 10SM SCT017 23/22 A2995 RMK AO2 T02310215
KLZZ 151335Z AUTO 21004KT 10SM SCT017 22/21 A2994 RMK AO2 T02210211
KLZZ 151315Z AUTO 00000KT 7SM CLR 22/21 A2993 RMK AO2 T02150207
KLZZ 151255Z AUTO 20003KT 7SM BKN014 22/21 A2992 RMK AO2 T02150206
KLZZ 151235Z AUTO 21003KT 10SM BKN014 22/21 A2992 RMK AO2 T02150207
KLZZ 151215Z AUTO 22004KT 10SM BKN014 22/21 A2991 RMK AO2 T02150206
KLZZ 151155Z AUTO 23006KT 10SM SCT014 22/21 A2990 RMK AO2 T02150207 10217 20189
KLZZ 151135Z AUTO 24004KT 10SM SCT014 22/21 A2990 RMK AO2 T02160207
KLZZ 151115Z AUTO 24006KT 10SM BKN014 22/21 A2989 RMK AO2 T02170210
KLZZ 151055Z AUTO 23005KT 10SM OVC012 22/21 A2989 RMK AO2 T02170210
KLZZ 151035Z AUTO 23005KT 10SM OVC008 22/21 A2989 RMK AO2 T02160210
KLZZ 151015Z AUTO 24005KT 7SM OVC006 22/21 A2989 RMK AO2 T02150210
KLZZ 150955Z AUTO 22006KT 7SM OVC006 21/21 A2987 RMK AO2 T02140210
KLZZ 150935Z AUTO 22005KT 4SM BR OVC004 21/21 A2987 RMK AO2 T02120208
KLZZ 150915Z AUTO 22005KT 4SM BR OVC004 21/21 A2987 RMK AO2 T02110206
KLZZ 150855Z AUTO 21005KT 7SM OVC004 21/21 A2987 RMK AO2 T02100206
KLZZ 150835Z AUTO 18003KT 5SM BR OVC006 21/21 A2986 RMK AO2 T02090205
KLZZ 150815Z AUTO 18004KT 4SM BR OVC004 21/21 A2986 RMK AO2 T02070205
KLZZ 150755Z AUTO 19004KT 2 1/2SM BR OVC002 21/20 A2987 RMK AO2 T02050201
KLZZ 150735Z AUTO 00000KT 2SM BR BKN004 20/19 A2987 RMK AO2 T01960193
KLZZ 150715Z AUTO 00000KT 4SM BR CLR 20/19 A2987 RMK AO2 T01950191
KLZZ 150655Z AUTO 00000KT 3SM BR CLR 19/19 A2987 RMK AO2 T01930190
KLZZ 150635Z AUTO 00000KT 4SM BR CLR 19/19 A2987 RMK AO2 T01940190
KLZZ 150615Z AUTO 00000KT 5SM BR CLR 20/19 A2987 RMK AO2 T01950190